sensor_id;sensor_type;location;lat;lon;timestamp;P1;durP1;ratioP1;P2;durP2;ratioP2
50591;SDS011;36548;50.506;30.834;2023-02-08T00:00:42;23.35;;;17.52;;
50591;SDS011;36548;50.506;30.834;2023-02-08T00:01:52;26.30;;;16.95;;
50591;SDS011;36548;50.506;30.834;2023-02-08T00:03:01;23.30;;;16.60;;
50591;SDS011;36548;50.506;30.834;2023-02-08T00:04:10;26.90;;;17.55;;
50591;SDS011;36548;50.506;30.834;2023-02-08T00:05:19;24.70;;;16.30;;
50591;SDS011;36548;50.506;30.834;2023-02-08T00:06:28;23.17;;;17.13;;
50591;SDS011;36548;50.506;30.834;2023-02-08T00:07:37;23.05;;;17.35;;
50591;SDS011;36548;50.506;30.834;2023-02-08T00:08:46;28.55;;;17.48;;
50591;SDS011;36548;50.506;30.834;2023-02-08T00:09:55;24.90;;;18.30;;
50591;SDS011;36548;50.506;30.834;2023-02-08T00:11:04;22.97;;;16.83;;
50591;SDS011;36548;50.506;30.834;2023-02-08T00:12:15;22.06;;;16.24;;
50591;SDS011;36548;50.506;30.834;2023-02-08T00:13:24;22.92;;;16.78;;
50591;SDS011;36548;50.506;30.834;2023-02-08T00:14:34;21.67;;;16.70;;
50591;SDS011;36548;50.506;30.834;2023-02-08T00:16:54;22.95;;;16.17;;
50591;SDS011;36548;50.506;30.834;2023-02-08T00:18:03;24.85;;;17.55;;
50591;SDS011;36548;50.506;30.834;2023-02-08T00:19:12;22.37;;;16.80;;
50591;SDS011;36548;50.506;30.834;2023-02-08T00:20:21;24.30;;;16.70;;
50591;SDS011;36548;50.506;30.834;2023-02-08T00:21:30;23.55;;;16.55;;
50591;SDS011;36548;50.506;30.834;2023-02-08T00:22:39;22.93;;;15.78;;
50591;SDS011;36548;50.506;30.834;2023-02-08T00:23:49;22.87;;;17.08;;
50591;SDS011;36548;50.506;30.834;2023-02-08T00:24:57;25.95;;;17.85;;
50591;SDS011;36548;50.506;30.834;2023-02-08T00:26:06;20.57;;;16.23;;
50591;SDS011;36548;50.506;30.834;2023-02-08T00:27:16;22.38;;;16.17;;
50591;SDS011;36548;50.506;30.834;2023-02-08T00:28:31;21.70;;;16.82;;
50591;SDS011;36548;50.506;30.834;2023-02-08T00:29:40;24.33;;;17.28;;
50591;SDS011;36548;50.506;30.834;2023-02-08T00:30:50;24.30;;;16.80;;
50591;SDS011;36548;50.506;30.834;2023-02-08T00:32:01;20.90;;;15.70;;
50591;SDS011;36548;50.506;30.834;2023-02-08T00:33:10;24.62;;;16.90;;
50591;SDS011;36548;50.506;30.834;2023-02-08T00:34:20;25.18;;;15.92;;
50591;SDS011;36548;50.506;30.834;2023-02-08T00:35:31;23.92;;;17.10;;
50591;SDS011;36548;50.506;30.834;2023-02-08T00:36:41;21.95;;;15.97;;
50591;SDS011;36548;50.506;30.834;2023-02-08T00:37:51;25.83;;;18.17;;
50591;SDS011;36548;50.506;30.834;2023-02-08T00:39:00;22.33;;;15.78;;
50591;SDS011;36548;50.506;30.834;2023-02-08T00:40:10;23.65;;;16.90;;
50591;SDS011;36548;50.506;30.834;2023-02-08T00:41:21;21.92;;;15.98;;
50591;SDS011;36548;50.506;30.834;2023-02-08T00:42:32;24.20;;;16.90;;
50591;SDS011;36548;50.506;30.834;2023-02-08T00:43:42;24.20;;;16.85;;
50591;SDS011;36548;50.506;30.834;2023-02-08T00:44:51;22.73;;;17.10;;
50591;SDS011;36548;50.506;30.834;2023-02-08T00:46:00;24.02;;;16.65;;
50591;SDS011;36548;50.506;30.834;2023-02-08T00:47:09;23.35;;;16.83;;
50591;SDS011;36548;50.506;30.834;2023-02-08T00:48:19;22.38;;;16.13;;
50591;SDS011;36548;50.506;30.834;2023-02-08T00:49:28;25.45;;;18.27;;
50591;SDS011;36548;50.506;30.834;2023-02-08T00:50:38;24.37;;;17.48;;
50591;SDS011;36548;50.506;30.834;2023-02-08T00:51:47;25.92;;;17.90;;
50591;SDS011;36548;50.506;30.834;2023-02-08T00:52:57;21.38;;;16.23;;
50591;SDS011;36548;50.506;30.834;2023-02-08T00:54:10;19.07;;;13.77;;
50591;SDS011;36548;50.506;30.834;2023-02-08T00:55:27;26.23;;;17.05;;
50591;SDS011;36548;50.506;30.834;2023-02-08T00:57:47;21.45;;;17.13;;
50591;SDS011;36548;50.506;30.834;2023-02-08T00:58:55;27.60;;;18.53;;
50591;SDS011;36548;50.506;30.834;2023-02-08T01:00:06;25.03;;;17.58;;
50591;SDS011;36548;50.506;30.834;2023-02-08T01:01:17;22.55;;;17.25;;
50591;SDS011;36548;50.506;30.834;2023-02-08T01:02:27;24.23;;;17.70;;
50591;SDS011;36548;50.506;30.834;2023-02-08T01:03:37;24.83;;;17.82;;
50591;SDS011;36548;50.506;30.834;2023-02-08T01:04:54;24.40;;;17.55;;
50591;SDS011;36548;50.506;30.834;2023-02-08T01:06:04;24.35;;;17.80;;
50591;SDS011;36548;50.506;30.834;2023-02-08T01:07:16;24.18;;;16.75;;
50591;SDS011;36548;50.506;30.834;2023-02-08T01:08:26;25.95;;;17.50;;
50591;SDS011;36548;50.506;30.834;2023-02-08T01:09:36;23.30;;;17.00;;
50591;SDS011;36548;50.506;30.834;2023-02-08T01:10:45;26.58;;;17.78;;
50591;SDS011;36548;50.506;30.834;2023-02-08T01:11:55;27.13;;;18.90;;
50591;SDS011;36548;50.506;30.834;2023-02-08T01:13:05;26.33;;;17.67;;
50591;SDS011;36548;50.506;30.834;2023-02-08T01:14:14;26.95;;;18.32;;
50591;SDS011;36548;50.506;30.834;2023-02-08T01:15:23;27.43;;;18.82;;
50591;SDS011;36548;50.506;30.834;2023-02-08T01:16:32;25.27;;;18.20;;
50591;SDS011;36548;50.506;30.834;2023-02-08T01:17:42;25.65;;;17.78;;
50591;SDS011;36548;50.506;30.834;2023-02-08T01:18:52;23.33;;;18.15;;
50591;SDS011;36548;50.506;30.834;2023-02-08T01:20:03;27.20;;;19.25;;
50591;SDS011;36548;50.506;30.834;2023-02-08T01:21:15;24.32;;;18.67;;
50591;SDS011;36548;50.506;30.834;2023-02-08T01:22:28;25.88;;;18.28;;
50591;SDS011;36548;50.506;30.834;2023-02-08T01:23:37;25.85;;;18.80;;
50591;SDS011;36548;50.506;30.834;2023-02-08T01:24:49;26.07;;;18.15;;
50591;SDS011;36548;50.506;30.834;2023-02-08T01:25:58;26.37;;;19.48;;
50591;SDS011;36548;50.506;30.834;2023-02-08T01:27:08;26.52;;;17.63;;
50591;SDS011;36548;50.506;30.834;2023-02-08T01:28:17;30.15;;;19.07;;
50591;SDS011;36548;50.506;30.834;2023-02-08T01:29:28;25.32;;;19.52;;
50591;SDS011;36548;50.506;30.834;2023-02-08T01:30:37;29.65;;;20.38;;
50591;SDS011;36548;50.506;30.834;2023-02-08T01:31:46;27.15;;;19.17;;
50591;SDS011;36548;50.506;30.834;2023-02-08T01:32:55;27.83;;;18.42;;
50591;SDS011;36548;50.506;30.834;2023-02-08T01:34:04;28.13;;;19.63;;
50591;SDS011;36548;50.506;30.834;2023-02-08T01:35:15;26.20;;;19.38;;
50591;SDS011;36548;50.506;30.834;2023-02-08T01:36:26;25.28;;;18.73;;
50591;SDS011;36548;50.506;30.834;2023-02-08T01:37:36;28.50;;;19.32;;
50591;SDS011;36548;50.506;30.834;2023-02-08T01:38:45;27.03;;;19.88;;
50591;SDS011;36548;50.506;30.834;2023-02-08T01:39:54;27.27;;;19.13;;
50591;SDS011;36548;50.506;30.834;2023-02-08T01:41:05;28.52;;;20.65;;
50591;SDS011;36548;50.506;30.834;2023-02-08T01:42:18;28.67;;;19.78;;
50591;SDS011;36548;50.506;30.834;2023-02-08T01:43:28;30.93;;;21.27;;
50591;SDS011;36548;50.506;30.834;2023-02-08T01:46:27;26.90;;;19.25;;
50591;SDS011;36548;50.506;30.834;2023-02-08T01:47:41;28.30;;;20.83;;
50591;SDS011;36548;50.506;30.834;2023-02-08T01:49:09;27.65;;;19.85;;
50591;SDS011;36548;50.506;30.834;2023-02-08T01:50:24;27.15;;;20.35;;
50591;SDS011;36548;50.506;30.834;2023-02-08T01:51:39;29.98;;;21.40;;
50591;SDS011;36548;50.506;30.834;2023-02-08T01:52:50;30.50;;;21.78;;
50591;SDS011;36548;50.506;30.834;2023-02-08T01:54:01;30.22;;;22.18;;
50591;SDS011;36548;50.506;30.834;2023-02-08T01:55:18;27.83;;;19.33;;
50591;SDS011;36548;50.506;30.834;2023-02-08T01:56:35;30.93;;;21.88;;
50591;SDS011;36548;50.506;30.834;2023-02-08T01:57:47;29.20;;;21.20;;
50591;SDS011;36548;50.506;30.834;2023-02-08T01:59:03;29.25;;;22.20;;
50591;SDS011;36548;50.506;30.834;2023-02-08T02:00:17;44.43;;;21.38;;
50591;SDS011;36548;50.506;30.834;2023-02-08T02:01:31;33.08;;;22.62;;
50591;SDS011;36548;50.506;30.834;2023-02-08T02:02:42;26.03;;;17.47;;
50591;SDS011;36548;50.506;30.834;2023-02-08T02:03:56;28.97;;;21.18;;
50591;SDS011;36548;50.506;30.834;2023-02-08T02:05:09;31.68;;;21.67;;
50591;SDS011;36548;50.506;30.834;2023-02-08T02:06:21;28.40;;;20.30;;
50591;SDS011;36548;50.506;30.834;2023-02-08T02:07:34;30.55;;;21.10;;
50591;SDS011;36548;50.506;30.834;2023-02-08T02:08:50;27.77;;;20.72;;
50591;SDS011;36548;50.506;30.834;2023-02-08T02:10:02;30.27;;;20.45;;
50591;SDS011;36548;50.506;30.834;2023-02-08T02:11:21;24.07;;;18.33;;
50591;SDS011;36548;50.506;30.834;2023-02-08T02:12:32;28.03;;;21.00;;
50591;SDS011;36548;50.506;30.834;2023-02-08T02:13:46;30.48;;;20.27;;
50591;SDS011;36548;50.506;30.834;2023-02-08T02:14:58;28.70;;;20.98;;
50591;SDS011;36548;50.506;30.834;2023-02-08T02:16:08;29.23;;;19.92;;
50591;SDS011;36548;50.506;30.834;2023-02-08T02:17:18;25.40;;;18.45;;
50591;SDS011;36548;50.506;30.834;2023-02-08T02:18:29;22.90;;;15.65;;
50591;SDS011;36548;50.506;30.834;2023-02-08T02:20:01;28.27;;;20.07;;
50591;SDS011;36548;50.506;30.834;2023-02-08T02:24:03;30.40;;;20.18;;
50591;SDS011;36548;50.506;30.834;2023-02-08T02:31:24;28.27;;;19.87;;
50591;SDS011;36548;50.506;30.834;2023-02-08T02:34:08;26.90;;;19.92;;
50591;SDS011;36548;50.506;30.834;2023-02-08T02:35:29;26.28;;;19.10;;
50591;SDS011;36548;50.506;30.834;2023-02-08T02:41:40;25.55;;;20.53;;
50591;SDS011;36548;50.506;30.834;2023-02-08T02:43:15;33.08;;;22.47;;
50591;SDS011;36548;50.506;30.834;2023-02-08T02:49:02;28.80;;;21.17;;
50591;SDS011;36548;50.506;30.834;2023-02-08T02:50:26;29.27;;;21.88;;
50591;SDS011;36548;50.506;30.834;2023-02-08T02:52:01;28.70;;;19.80;;
50591;SDS011;36548;50.506;30.834;2023-02-08T02:54:48;29.00;;;21.82;;
50591;SDS011;36548;50.506;30.834;2023-02-08T02:56:01;30.47;;;22.38;;
50591;SDS011;36548;50.506;30.834;2023-02-08T02:57:25;31.35;;;22.65;;
50591;SDS011;36548;50.506;30.834;2023-02-08T02:58:34;27.07;;;20.18;;
50591;SDS011;36548;50.506;30.834;2023-02-08T02:59:46;28.43;;;20.67;;
50591;SDS011;36548;50.506;30.834;2023-02-08T03:00:57;30.25;;;20.25;;
50591;SDS011;36548;50.506;30.834;2023-02-08T03:02:08;27.23;;;19.93;;
50591;SDS011;36548;50.506;30.834;2023-02-08T03:05:57;21.50;;;15.83;;
50591;SDS011;36548;50.506;30.834;2023-02-08T03:11:37;30.62;;;21.83;;
50591;SDS011;36548;50.506;30.834;2023-02-08T03:12:54;29.43;;;22.58;;
50591;SDS011;36548;50.506;30.834;2023-02-08T03:14:22;28.08;;;21.78;;
50591;SDS011;36548;50.506;30.834;2023-02-08T03:18:43;30.82;;;21.32;;
50591;SDS011;36548;50.506;30.834;2023-02-08T03:21:22;30.40;;;22.00;;
50591;SDS011;36548;50.506;30.834;2023-02-08T03:22:46;29.77;;;22.23;;
50591;SDS011;36548;50.506;30.834;2023-02-08T03:25:49;30.35;;;22.38;;
50591;SDS011;36548;50.506;30.834;2023-02-08T03:30:00;28.90;;;20.15;;
50591;SDS011;36548;50.506;30.834;2023-02-08T03:31:25;26.67;;;20.73;;
50591;SDS011;36548;50.506;30.834;2023-02-08T03:34:18;27.53;;;21.73;;
50591;SDS011;36548;50.506;30.834;2023-02-08T03:35:27;29.38;;;20.52;;
50591;SDS011;36548;50.506;30.834;2023-02-08T03:36:47;34.97;;;22.70;;
50591;SDS011;36548;50.506;30.834;2023-02-08T03:37:59;29.75;;;21.58;;
50591;SDS011;36548;50.506;30.834;2023-02-08T03:39:11;29.50;;;22.26;;
50591;SDS011;36548;50.506;30.834;2023-02-08T03:40:37;28.95;;;22.60;;
50591;SDS011;36548;50.506;30.834;2023-02-08T03:41:46;28.97;;;21.40;;
50591;SDS011;36548;50.506;30.834;2023-02-08T03:42:59;30.33;;;22.08;;
50591;SDS011;36548;50.506;30.834;2023-02-08T03:44:12;30.87;;;22.13;;
50591;SDS011;36548;50.506;30.834;2023-02-08T03:45:36;25.40;;;19.80;;
50591;SDS011;36548;50.506;30.834;2023-02-08T03:48:15;30.38;;;22.27;;
50591;SDS011;36548;50.506;30.834;2023-02-08T03:49:29;30.62;;;23.35;;
50591;SDS011;36548;50.506;30.834;2023-02-08T03:50:40;31.17;;;22.97;;
50591;SDS011;36548;50.506;30.834;2023-02-08T03:51:53;32.20;;;24.03;;
50591;SDS011;36548;50.506;30.834;2023-02-08T03:54:24;34.08;;;25.62;;
50591;SDS011;36548;50.506;30.834;2023-02-08T03:55:36;36.50;;;25.85;;
50591;SDS011;36548;50.506;30.834;2023-02-08T03:57:01;34.30;;;25.53;;
50591;SDS011;36548;50.506;30.834;2023-02-08T03:58:27;32.80;;;24.65;;
50591;SDS011;36548;50.506;30.834;2023-02-08T04:00:05;33.20;;;25.75;;
50591;SDS011;36548;50.506;30.834;2023-02-08T04:01:35;34.08;;;23.88;;
50591;SDS011;36548;50.506;30.834;2023-02-08T04:02:54;37.02;;;25.78;;
50591;SDS011;36548;50.506;30.834;2023-02-08T04:04:08;33.88;;;24.08;;
50591;SDS011;36548;50.506;30.834;2023-02-08T04:05:20;33.38;;;25.08;;
50591;SDS011;36548;50.506;30.834;2023-02-08T04:06:31;33.10;;;24.15;;
50591;SDS011;36548;50.506;30.834;2023-02-08T04:07:40;34.95;;;25.13;;
50591;SDS011;36548;50.506;30.834;2023-02-08T04:08:49;29.05;;;20.65;;
50591;SDS011;36548;50.506;30.834;2023-02-08T04:09:58;27.15;;;19.55;;
50591;SDS011;36548;50.506;30.834;2023-02-08T04:11:07;25.55;;;18.15;;
50591;SDS011;36548;50.506;30.834;2023-02-08T04:12:18;24.02;;;18.53;;
50591;SDS011;36548;50.506;30.834;2023-02-08T04:13:26;25.83;;;18.50;;
50591;SDS011;36548;50.506;30.834;2023-02-08T04:14:35;23.72;;;17.68;;
50591;SDS011;36548;50.506;30.834;2023-02-08T04:15:44;22.45;;;17.57;;
50591;SDS011;36548;50.506;30.834;2023-02-08T04:16:54;23.27;;;18.37;;
50591;SDS011;36548;50.506;30.834;2023-02-08T04:18:05;21.45;;;16.20;;
50591;SDS011;36548;50.506;30.834;2023-02-08T04:19:14;24.40;;;19.70;;
50591;SDS011;36548;50.506;30.834;2023-02-08T04:20:23;25.83;;;19.17;;
50591;SDS011;36548;50.506;30.834;2023-02-08T04:21:33;29.07;;;21.68;;
50591;SDS011;36548;50.506;30.834;2023-02-08T04:22:43;27.55;;;21.25;;
50591;SDS011;36548;50.506;30.834;2023-02-08T04:23:52;35.98;;;21.98;;
50591;SDS011;36548;50.506;30.834;2023-02-08T04:25:01;32.27;;;22.02;;
50591;SDS011;36548;50.506;30.834;2023-02-08T04:26:11;32.20;;;24.15;;
50591;SDS011;36548;50.506;30.834;2023-02-08T04:27:20;29.87;;;23.00;;
50591;SDS011;36548;50.506;30.834;2023-02-08T04:28:29;29.27;;;22.42;;
50591;SDS011;36548;50.506;30.834;2023-02-08T04:29:37;30.20;;;23.37;;
50591;SDS011;36548;50.506;30.834;2023-02-08T04:30:47;32.25;;;23.52;;
50591;SDS011;36548;50.506;30.834;2023-02-08T04:31:57;29.50;;;22.08;;
50591;SDS011;36548;50.506;30.834;2023-02-08T04:33:08;30.78;;;23.25;;
50591;SDS011;36548;50.506;30.834;2023-02-08T04:34:17;31.57;;;23.00;;
50591;SDS011;36548;50.506;30.834;2023-02-08T04:35:27;30.17;;;22.40;;
50591;SDS011;36548;50.506;30.834;2023-02-08T04:36:36;35.32;;;24.58;;
50591;SDS011;36548;50.506;30.834;2023-02-08T04:37:45;30.70;;;23.47;;
50591;SDS011;36548;50.506;30.834;2023-02-08T04:38:54;32.38;;;24.22;;
50591;SDS011;36548;50.506;30.834;2023-02-08T04:42:25;32.90;;;26.33;;
50591;SDS011;36548;50.506;30.834;2023-02-08T04:43:34;37.80;;;30.17;;
50591;SDS011;36548;50.506;30.834;2023-02-08T04:44:45;37.40;;;29.37;;
50591;SDS011;36548;50.506;30.834;2023-02-08T04:45:54;36.40;;;28.92;;
50591;SDS011;36548;50.506;30.834;2023-02-08T04:47:03;36.78;;;29.10;;
50591;SDS011;36548;50.506;30.834;2023-02-08T04:48:13;38.45;;;29.80;;
50591;SDS011;36548;50.506;30.834;2023-02-08T04:49:22;32.83;;;27.10;;
50591;SDS011;36548;50.506;30.834;2023-02-08T04:50:34;33.90;;;28.32;;
50591;SDS011;36548;50.506;30.834;2023-02-08T04:51:43;43.97;;;30.30;;
50591;SDS011;36548;50.506;30.834;2023-02-08T04:52:52;38.43;;;30.83;;
50591;SDS011;36548;50.506;30.834;2023-02-08T04:54:00;34.90;;;28.77;;
50591;SDS011;36548;50.506;30.834;2023-02-08T04:55:12;38.13;;;29.97;;
50591;SDS011;36548;50.506;30.834;2023-02-08T04:56:21;34.17;;;28.82;;
50591;SDS011;36548;50.506;30.834;2023-02-08T05:54:27;32.50;;;26.58;;
50591;SDS011;36548;50.506;30.834;2023-02-08T05:55:35;35.00;;;28.03;;
50591;SDS011;36548;50.506;30.834;2023-02-08T05:56:45;31.43;;;26.07;;
50591;SDS011;36548;50.506;30.834;2023-02-08T05:57:54;30.83;;;24.75;;
50591;SDS011;36548;50.506;30.834;2023-02-08T05:59:03;28.18;;;23.15;;
50591;SDS011;36548;50.506;30.834;2023-02-08T06:00:13;30.63;;;22.35;;
50591;SDS011;36548;50.506;30.834;2023-02-08T06:01:26;29.52;;;21.85;;
50591;SDS011;36548;50.506;30.834;2023-02-08T06:02:42;32.68;;;24.07;;
50591;SDS011;36548;50.506;30.834;2023-02-08T06:03:51;29.22;;;23.38;;
50591;SDS011;36548;50.506;30.834;2023-02-08T06:05:00;30.25;;;22.85;;
50591;SDS011;36548;50.506;30.834;2023-02-08T06:06:15;28.88;;;21.74;;
50591;SDS011;36548;50.506;30.834;2023-02-08T06:07:24;27.97;;;21.30;;
50591;SDS011;36548;50.506;30.834;2023-02-08T06:08:33;29.20;;;21.92;;
50591;SDS011;36548;50.506;30.834;2023-02-08T06:09:42;24.35;;;18.75;;
50591;SDS011;36548;50.506;30.834;2023-02-08T06:10:52;29.63;;;21.60;;
50591;SDS011;36548;50.506;30.834;2023-02-08T06:12:01;27.15;;;20.47;;
50591;SDS011;36548;50.506;30.834;2023-02-08T06:13:17;26.68;;;20.15;;
50591;SDS011;36548;50.506;30.834;2023-02-08T06:14:27;28.52;;;21.03;;
50591;SDS011;36548;50.506;30.834;2023-02-08T06:15:36;24.27;;;18.72;;
50591;SDS011;36548;50.506;30.834;2023-02-08T06:16:44;29.62;;;20.28;;
50591;SDS011;36548;50.506;30.834;2023-02-08T06:17:53;26.12;;;20.53;;
50591;SDS011;36548;50.506;30.834;2023-02-08T06:19:03;26.45;;;20.45;;
50591;SDS011;36548;50.506;30.834;2023-02-08T06:20:13;28.45;;;19.28;;
50591;SDS011;36548;50.506;30.834;2023-02-08T06:21:22;22.48;;;17.67;;
50591;SDS011;36548;50.506;30.834;2023-02-08T06:22:39;29.97;;;20.83;;
50591;SDS011;36548;50.506;30.834;2023-02-08T06:23:49;27.70;;;20.62;;
50591;SDS011;36548;50.506;30.834;2023-02-08T06:25:00;27.98;;;20.82;;
50591;SDS011;36548;50.506;30.834;2023-02-08T06:26:09;30.92;;;22.55;;
50591;SDS011;36548;50.506;30.834;2023-02-08T06:27:25;31.05;;;23.15;;
50591;SDS011;36548;50.506;30.834;2023-02-08T06:28:34;30.28;;;23.55;;
50591;SDS011;36548;50.506;30.834;2023-02-08T06:29:42;35.28;;;23.77;;
50591;SDS011;36548;50.506;30.834;2023-02-08T06:30:53;27.37;;;21.03;;
50591;SDS011;36548;50.506;30.834;2023-02-08T06:32:02;31.80;;;24.10;;
50591;SDS011;36548;50.506;30.834;2023-02-08T06:33:11;31.57;;;23.12;;
50591;SDS011;36548;50.506;30.834;2023-02-08T06:34:26;29.37;;;23.13;;
50591;SDS011;36548;50.506;30.834;2023-02-08T06:35:35;30.67;;;22.58;;
50591;SDS011;36548;50.506;30.834;2023-02-08T06:36:46;29.93;;;23.77;;
50591;SDS011;36548;50.506;30.834;2023-02-08T06:37:54;30.35;;;23.87;;
50591;SDS011;36548;50.506;30.834;2023-02-08T06:39:03;30.80;;;22.88;;
50591;SDS011;36548;50.506;30.834;2023-02-08T06:40:14;28.45;;;20.00;;
50591;SDS011;36548;50.506;30.834;2023-02-08T06:41:24;25.52;;;19.23;;
50591;SDS011;36548;50.506;30.834;2023-02-08T06:42:33;28.22;;;22.83;;
50591;SDS011;36548;50.506;30.834;2023-02-08T06:43:42;32.12;;;23.88;;
50591;SDS011;36548;50.506;30.834;2023-02-08T06:44:51;32.05;;;24.40;;
50591;SDS011;36548;50.506;30.834;2023-02-08T06:46:08;31.70;;;23.42;;
50591;SDS011;36548;50.506;30.834;2023-02-08T06:47:18;50.53;;;41.15;;
50591;SDS011;36548;50.506;30.834;2023-02-08T06:48:27;168.15;;;133.48;;
50591;SDS011;36548;50.506;30.834;2023-02-08T06:50:51;237.75;;;206.53;;
50591;SDS011;36548;50.506;30.834;2023-02-08T06:52:01;36.68;;;28.23;;
50591;SDS011;36548;50.506;30.834;2023-02-08T06:53:10;59.02;;;49.88;;
50591;SDS011;36548;50.506;30.834;2023-02-08T06:54:19;59.73;;;49.40;;
50591;SDS011;36548;50.506;30.834;2023-02-08T06:55:35;44.10;;;36.25;;
50591;SDS011;36548;50.506;30.834;2023-02-08T06:56:44;28.62;;;22.73;;
50591;SDS011;36548;50.506;30.834;2023-02-08T06:57:53;33.17;;;26.60;;
50591;SDS011;36548;50.506;30.834;2023-02-08T06:59:03;35.03;;;26.98;;
50591;SDS011;36548;50.506;30.834;2023-02-08T07:00:13;33.67;;;25.35;;
50591;SDS011;36548;50.506;30.834;2023-02-08T07:01:23;35.53;;;26.52;;
50591;SDS011;36548;50.506;30.834;2023-02-08T07:02:32;39.73;;;26.47;;
50591;SDS011;36548;50.506;30.834;2023-02-08T07:03:42;36.47;;;27.45;;
50591;SDS011;36548;50.506;30.834;2023-02-08T07:06:12;37.90;;;27.05;;
50591;SDS011;36548;50.506;30.834;2023-02-08T07:07:22;35.18;;;27.05;;
50591;SDS011;36548;50.506;30.834;2023-02-08T07:08:32;36.98;;;26.90;;
50591;SDS011;36548;50.506;30.834;2023-02-08T07:09:43;37.20;;;27.00;;
50591;SDS011;36548;50.506;30.834;2023-02-08T07:10:53;35.58;;;27.22;;
50591;SDS011;36548;50.506;30.834;2023-02-08T07:12:02;35.20;;;26.45;;
50591;SDS011;36548;50.506;30.834;2023-02-08T07:13:12;30.50;;;22.30;;
50591;SDS011;36548;50.506;30.834;2023-02-08T07:14:23;36.05;;;27.98;;
50591;SDS011;36548;50.506;30.834;2023-02-08T07:15:31;43.00;;;29.82;;
50591;SDS011;36548;50.506;30.834;2023-02-08T07:16:42;38.83;;;28.32;;
50591;SDS011;36548;50.506;30.834;2023-02-08T07:17:51;38.82;;;27.20;;
50591;SDS011;36548;50.506;30.834;2023-02-08T07:18:59;55.07;;;40.97;;
50591;SDS011;36548;50.506;30.834;2023-02-08T07:20:09;42.27;;;29.13;;
50591;SDS011;36548;50.506;30.834;2023-02-08T07:21:19;38.88;;;28.43;;
50591;SDS011;36548;50.506;30.834;2023-02-08T07:22:29;37.60;;;27.90;;
50591;SDS011;36548;50.506;30.834;2023-02-08T07:23:38;38.30;;;29.38;;
50591;SDS011;36548;50.506;30.834;2023-02-08T07:24:48;43.30;;;30.13;;
50591;SDS011;36548;50.506;30.834;2023-02-08T07:27:16;42.58;;;30.12;;
50591;SDS011;36548;50.506;30.834;2023-02-08T07:28:26;40.67;;;29.65;;
50591;SDS011;36548;50.506;30.834;2023-02-08T07:29:36;39.68;;;29.30;;
50591;SDS011;36548;50.506;30.834;2023-02-08T07:30:46;42.42;;;29.83;;
50591;SDS011;36548;50.506;30.834;2023-02-08T07:32:01;38.53;;;30.48;;
50591;SDS011;36548;50.506;30.834;2023-02-08T07:33:11;42.40;;;32.28;;
50591;SDS011;36548;50.506;30.834;2023-02-08T07:34:20;37.90;;;30.08;;
50591;SDS011;36548;50.506;30.834;2023-02-08T07:35:28;38.13;;;29.57;;
50591;SDS011;36548;50.506;30.834;2023-02-08T07:36:39;39.73;;;28.60;;
50591;SDS011;36548;50.506;30.834;2023-02-08T07:37:48;38.75;;;29.67;;
50591;SDS011;36548;50.506;30.834;2023-02-08T07:38:56;43.28;;;28.95;;
50591;SDS011;36548;50.506;30.834;2023-02-08T07:40:06;38.80;;;29.28;;
50591;SDS011;36548;50.506;30.834;2023-02-08T07:41:16;37.00;;;29.75;;
50591;SDS011;36548;50.506;30.834;2023-02-08T07:42:25;37.20;;;28.55;;
50591;SDS011;36548;50.506;30.834;2023-02-08T07:43:37;38.38;;;29.40;;
50591;SDS011;36548;50.506;30.834;2023-02-08T07:44:47;38.25;;;29.52;;
50591;SDS011;36548;50.506;30.834;2023-02-08T07:45:56;40.38;;;30.25;;
50591;SDS011;36548;50.506;30.834;2023-02-08T07:47:05;43.32;;;30.53;;
50591;SDS011;36548;50.506;30.834;2023-02-08T07:48:15;33.83;;;25.02;;
50591;SDS011;36548;50.506;30.834;2023-02-08T07:49:24;38.63;;;29.92;;
50591;SDS011;36548;50.506;30.834;2023-02-08T07:50:35;36.60;;;27.07;;
50591;SDS011;36548;50.506;30.834;2023-02-08T07:52:09;39.78;;;29.32;;
50591;SDS011;36548;50.506;30.834;2023-02-08T07:53:18;36.42;;;27.97;;
50591;SDS011;36548;50.506;30.834;2023-02-08T07:54:28;40.87;;;29.33;;
50591;SDS011;36548;50.506;30.834;2023-02-08T07:55:44;38.45;;;28.78;;
50591;SDS011;36548;50.506;30.834;2023-02-08T07:56:54;43.75;;;35.00;;
50591;SDS011;36548;50.506;30.834;2023-02-08T07:58:03;111.85;;;82.28;;
50591;SDS011;36548;50.506;30.834;2023-02-08T07:59:11;118.50;;;94.02;;
50591;SDS011;36548;50.506;30.834;2023-02-08T08:00:28;75.53;;;54.20;;
50591;SDS011;36548;50.506;30.834;2023-02-08T08:01:37;60.33;;;44.72;;
50591;SDS011;36548;50.506;30.834;2023-02-08T08:02:46;46.57;;;33.33;;
50591;SDS011;36548;50.506;30.834;2023-02-08T08:03:57;39.78;;;28.96;;
50591;SDS011;36548;50.506;30.834;2023-02-08T08:05:07;39.82;;;28.58;;
50591;SDS011;36548;50.506;30.834;2023-02-08T08:06:19;39.95;;;29.23;;
50591;SDS011;36548;50.506;30.834;2023-02-08T08:07:31;37.95;;;29.42;;
50591;SDS011;36548;50.506;30.834;2023-02-08T08:08:40;39.43;;;28.57;;
50591;SDS011;36548;50.506;30.834;2023-02-08T08:09:51;38.98;;;28.25;;
50591;SDS011;36548;50.506;30.834;2023-02-08T08:11:00;38.67;;;28.80;;
50591;SDS011;36548;50.506;30.834;2023-02-08T08:13:26;36.17;;;27.28;;
50591;SDS011;36548;50.506;30.834;2023-02-08T08:14:47;37.30;;;28.37;;
50591;SDS011;36548;50.506;30.834;2023-02-08T08:15:56;38.70;;;27.62;;
50591;SDS011;36548;50.506;30.834;2023-02-08T08:17:06;37.75;;;28.25;;
50591;SDS011;36548;50.506;30.834;2023-02-08T08:18:16;28.98;;;23.02;;
50591;SDS011;36548;50.506;30.834;2023-02-08T08:19:25;38.68;;;28.52;;
50591;SDS011;36548;50.506;30.834;2023-02-08T08:20:34;36.23;;;27.08;;
50591;SDS011;36548;50.506;30.834;2023-02-08T08:21:43;37.85;;;27.60;;
50591;SDS011;36548;50.506;30.834;2023-02-08T08:22:52;39.05;;;28.42;;
50591;SDS011;36548;50.506;30.834;2023-02-08T08:24:02;32.10;;;25.70;;
50591;SDS011;36548;50.506;30.834;2023-02-08T08:25:18;36.47;;;27.20;;
50591;SDS011;36548;50.506;30.834;2023-02-08T08:26:26;32.77;;;27.03;;
50591;SDS011;36548;50.506;30.834;2023-02-08T08:27:36;35.93;;;26.85;;
50591;SDS011;36548;50.506;30.834;2023-02-08T08:28:46;35.00;;;24.87;;
50591;SDS011;36548;50.506;30.834;2023-02-08T08:31:10;34.80;;;25.48;;
50591;SDS011;36548;50.506;30.834;2023-02-08T08:32:20;31.13;;;24.60;;
50591;SDS011;36548;50.506;30.834;2023-02-08T08:33:36;31.05;;;23.55;;
50591;SDS011;36548;50.506;30.834;2023-02-08T08:34:44;32.45;;;24.75;;
50591;SDS011;36548;50.506;30.834;2023-02-08T08:35:53;29.88;;;22.92;;
50591;SDS011;36548;50.506;30.834;2023-02-08T08:37:02;33.23;;;23.87;;
50591;SDS011;36548;50.506;30.834;2023-02-08T08:38:11;31.62;;;22.30;;
50591;SDS011;36548;50.506;30.834;2023-02-08T08:39:20;32.52;;;23.82;;
50591;SDS011;36548;50.506;30.834;2023-02-08T08:40:54;33.28;;;24.72;;
50591;SDS011;36548;50.506;30.834;2023-02-08T08:42:03;30.53;;;23.18;;
50591;SDS011;36548;50.506;30.834;2023-02-08T08:43:12;33.08;;;24.62;;
50591;SDS011;36548;50.506;30.834;2023-02-08T08:44:21;30.92;;;21.93;;